Terminal Aerodrome Forecast
Issued by NWS Chicago, IL

Home | Current Version | Previous Version | Text Only | Print | Product List | Glossary On
Versions: 1 2 3 4 5 6 7 8 9 10 11 12 13 14 15 16 17 18 19 20 21 22 23 24 25 26
695
FTUS43 KLOT 091500 AAB
TAFRFD
TAF AMD
KRFD 091500Z 0915/1012 33014G20KT 5SM -SHSN SCT015 OVC035
      TEMPO 0915/0919 2SM -SHSN BKN015 OVC025
     FM091900 32015G22KT 5SM -SHSN BKN025 OVC040
      TEMPO 0919/0923 2SM -SHSN BKN015
     FM100200 33015G22KT P6SM SCT025 OVC050=

USA.gov is the U.S. government's official web portal to all federal, state and local government web resources and services.